Time;durP1;ratioP1;P1;durP2;ratioP2;P2;SDS_P1;SDS_P2;PMS_P1;PMS_P2;Temp;Humidity;BMP_temperature;BMP_pressure;BME280_temperature;BME280_humidity;BME280_pressure;Samples;Min_cycle;Max_cycle;Signal;HPM_P1;HPM_P2
2022/09/10 00:00:45;;;;;;;4.18;1.20;;;14.90;99.90;;;;;;4986639;28;20026;-73
2022/09/10 00:03:11;;;;;;;3.20;1.35;;;14.80;99.90;;;;;;5012409;28;20117;-73
2022/09/10 00:05:39;;;;;;;2.55;1.10;;;15.10;99.90;;;;;;5012234;28;20045;-74
2022/09/10 00:08:05;;;;;;;2.67;1.10;;;15.10;99.90;;;;;;5010766;28;20025;-73
2022/09/10 00:10:36;;;;;;;3.30;1.38;;;15.20;99.90;;;;;;5005509;28;20022;-73
2022/09/10 00:13:02;;;;;;;3.15;1.58;;;15.00;99.90;;;;;;4992355;28;20023;-72
2022/09/10 00:15:28;;;;;;;2.65;1.15;;;15.00;99.90;;;;;;4991322;28;20555;-74
2022/09/10 00:17:53;;;;;;;4.55;1.10;;;15.00;99.90;;;;;;4996743;28;20037;-74
2022/09/10 00:20:19;;;;;;;4.60;1.38;;;15.10;99.90;;;;;;4984347;28;20026;-75
2022/09/10 00:22:44;;;;;;;2.72;1.10;;;15.00;99.90;;;;;;4988135;28;20033;-74
2022/09/10 00:25:10;;;;;;;2.30;1.20;;;15.10;99.90;;;;;;4985309;28;20034;-75
2022/09/10 00:27:36;;;;;;;2.10;1.20;;;15.00;99.90;;;;;;4996042;28;20026;-73
2022/09/10 00:30:02;;;;;;;2.90;1.20;;;14.80;99.90;;;;;;4987491;28;20030;-73
2022/09/10 00:32:28;;;;;;;3.17;1.02;;;14.80;99.90;;;;;;4990863;28;20077;-73
2022/09/10 00:34:54;;;;;;;4.10;1.40;;;14.90;99.90;;;;;;4991024;28;20022;-74
2022/09/10 00:37:20;;;;;;;3.97;1.23;;;14.90;99.90;;;;;;4992077;28;20015;-73
2022/09/10 00:39:46;;;;;;;3.95;1.30;;;14.80;99.90;;;;;;4998526;28;20022;-74
2022/09/10 00:42:12;;;;;;;3.95;1.17;;;14.90;99.90;;;;;;5026143;28;20487;-73
2022/09/10 00:44:38;;;;;;;2.40;1.00;;;14.80;99.90;;;;;;4990992;28;20034;-73
2022/09/10 00:47:06;;;;;;;2.28;1.30;;;14.70;99.90;;;;;;4992922;28;20110;-72
2022/09/10 00:49:41;;;;;;;1.60;1.10;;;14.80;99.90;;;;;;5003966;28;20057;-72
2022/09/10 00:52:07;;;;;;;2.05;1.10;;;14.80;99.90;;;;;;5004797;28;20026;-73
2022/09/10 00:54:34;;;;;;;2.08;1.08;;;14.60;99.90;;;;;;4982458;28;20499;-72
2022/09/10 00:57:05;;;;;;;2.55;1.08;;;14.70;99.90;;;;;;4998266;28;20022;-73
2022/09/10 00:59:31;;;;;;;1.90;1.00;;;14.80;99.90;;;;;;4985523;28;20025;-72
2022/09/10 01:01:58;;;;;;;3.25;1.20;;;14.80;99.90;;;;;;4992570;28;20023;-73
2022/09/10 01:04:25;;;;;;;3.50;1.08;;;14.70;99.90;;;;;;4996126;28;20369;-72
2022/09/10 01:06:51;;;;;;;3.50;1.20;;;14.70;99.90;;;;;;5007568;28;20045;-72
2022/09/10 01:09:19;;;;;;;3.97;1.20;;;14.70;99.90;;;;;;4990906;28;20105;-72
2022/09/10 01:12:06;;;;;;;2.90;1.25;;;14.70;99.90;;;;;;5009047;28;20077;-72
2022/09/10 01:14:57;;;;;;;2.47;1.20;;;14.70;99.90;;;;;;5007680;28;20021;-72
2022/09/10 01:17:29;;;;;;;5.57;1.35;;;14.60;99.90;;;;;;5005853;28;20018;-73
2022/09/10 01:19:57;;;;;;;2.20;1.40;;;14.60;99.90;;;;;;5002373;28;20056;-73
2022/09/10 01:22:34;;;;;;;2.63;1.20;;;14.60;99.90;;;;;;5003829;28;20072;-73
2022/09/10 01:25:26;;;;;;;2.00;1.10;;;14.70;99.90;;;;;;5007449;28;20034;-73
2022/09/10 01:27:58;;;;;;;2.42;1.08;;;14.60;99.90;;;;;;4995256;28;20036;-73
2022/09/10 01:30:36;;;;;;;1.20;1.02;;;14.70;99.90;;;;;;5005182;28;20025;-74
2022/09/10 01:33:05;;;;;;;1.88;1.20;;;14.70;99.90;;;;;;5001905;28;20029;-73
2022/09/10 01:35:43;;;;;;;4.68;1.10;;;14.70;99.90;;;;;;5002292;28;20038;-73
2022/09/10 01:38:24;;;;;;;2.20;1.17;;;14.60;99.90;;;;;;4991495;28;20033;-73
2022/09/10 01:40:52;;;;;;;4.03;1.15;;;14.50;99.90;;;;;;5001456;28;20525;-72
2022/09/10 01:43:18;;;;;;;2.10;1.20;;;14.50;99.90;;;;;;5003569;28;20038;-74
2022/09/10 01:45:50;;;;;;;2.72;1.15;;;14.50;99.90;;;;;;4998553;28;20399;-73
2022/09/10 01:48:18;;;;;;;3.45;1.17;;;14.60;99.90;;;;;;4986082;28;20101;-74
2022/09/10 01:50:47;;;;;;;2.30;0.98;;;14.50;99.90;;;;;;4995088;28;20026;-74
2022/09/10 01:53:32;;;;;;;1.80;1.10;;;14.60;99.90;;;;;;5002246;28;20054;-73
2022/09/10 01:56:09;;;;;;;3.67;1.40;;;14.60;99.90;;;;;;5003432;28;20022;-73
2022/09/10 01:58:44;;;;;;;2.60;1.30;;;14.50;99.90;;;;;;4997536;28;20050;-73
2022/09/10 02:01:31;;;;;;;1.50;1.23;;;14.50;99.90;;;;;;4982558;28;20488;-72
2022/09/10 02:04:01;;;;;;;3.47;1.25;;;14.50;99.90;;;;;;4994327;28;20096;-73
2022/09/10 02:06:29;;;;;;;3.88;1.15;;;14.60;99.90;;;;;;4988970;28;20033;-74
2022/09/10 02:08:57;;;;;;;8.10;1.10;;;14.70;99.90;;;;;;4995763;28;20607;-73
2022/09/10 02:11:23;;;;;;;1.98;1.05;;;14.60;99.90;;;;;;4994820;28;20030;-73
2022/09/10 02:13:49;;;;;;;2.03;1.00;;;14.60;99.90;;;;;;5006730;28;20030;-74
2022/09/10 02:16:23;;;;;;;2.45;1.13;;;14.60;99.90;;;;;;4994718;28;20029;-72
2022/09/10 02:18:48;;;;;;;2.85;1.27;;;14.50;99.90;;;;;;5003033;28;20026;-72
2022/09/10 02:21:14;;;;;;;2.47;1.08;;;14.50;99.90;;;;;;4997789;28;20408;-72
2022/09/10 02:23:48;;;;;;;2.75;1.20;;;14.50;99.90;;;;;;5002991;28;20097;-72
2022/09/10 02:26:14;;;;;;;3.35;0.80;;;14.60;99.90;;;;;;5001036;28;20511;-73
2022/09/10 02:28:42;;;;;;;2.60;1.17;;;14.60;99.90;;;;;;5004108;28;20031;-73
2022/09/10 02:31:08;;;;;;;1.50;0.90;;;14.60;99.90;;;;;;4994273;28;20054;-73
2022/09/10 02:33:34;;;;;;;2.72;1.10;;;14.50;99.90;;;;;;4993013;28;20117;-73
2022/09/10 02:36:01;;;;;;;3.03;1.30;;;14.50;99.90;;;;;;5007291;28;20027;-74
2022/09/10 02:38:28;;;;;;;3.00;1.20;;;14.40;99.90;;;;;;5004384;28;20025;-73
2022/09/10 02:40:56;;;;;;;1.77;1.05;;;14.50;99.90;;;;;;4997540;28;20572;-74
2022/09/10 02:43:21;;;;;;;2.38;1.05;;;14.60;99.90;;;;;;4997510;28;20500;-73
2022/09/10 02:45:47;;;;;;;2.65;1.13;;;14.50;99.90;;;;;;4988010;28;20027;-73
2022/09/10 02:48:12;;;;;;;2.92;1.25;;;14.40;99.90;;;;;;4986978;28;20023;-73
2022/09/10 02:50:38;;;;;;;3.78;1.08;;;14.30;99.90;;;;;;4992720;28;20034;-74
2022/09/10 02:53:05;;;;;;;2.40;1.42;;;14.30;99.90;;;;;;4995144;28;20034;-73
2022/09/10 02:55:31;;;;;;;3.22;1.20;;;14.30;99.90;;;;;;4991711;28;20514;-74
2022/09/10 02:57:57;;;;;;;1.85;1.08;;;14.30;99.90;;;;;;4993653;28;20026;-73
2022/09/10 03:00:23;;;;;;;2.55;1.10;;;14.30;99.90;;;;;;4993935;28;20109;-72
2022/09/10 03:02:49;;;;;;;3.83;1.25;;;14.20;99.90;;;;;;4993623;28;20496;-72
2022/09/10 03:05:16;;;;;;;2.78;1.30;;;14.30;99.90;;;;;;4993700;28;20076;-72
2022/09/10 03:07:42;;;;;;;5.32;1.35;;;14.30;99.90;;;;;;4993457;28;20034;-73
2022/09/10 03:10:09;;;;;;;3.53;1.15;;;14.30;99.90;;;;;;4993531;28;20109;-74
2022/09/10 03:12:35;;;;;;;2.83;1.40;;;14.30;99.90;;;;;;4992308;28;20037;-73
2022/09/10 03:15:00;;;;;;;3.67;1.25;;;14.40;99.90;;;;;;4992225;28;20053;-74
2022/09/10 03:17:26;;;;;;;2.42;1.40;;;14.40;99.90;;;;;;4992781;28;20481;-74
2022/09/10 03:19:52;;;;;;;3.10;1.33;;;14.40;99.90;;;;;;4993191;28;20373;-72
2022/09/10 03:22:18;;;;;;;6.03;1.45;;;14.40;99.90;;;;;;4993469;28;20038;-72
2022/09/10 03:24:43;;;;;;;2.67;1.20;;;14.30;99.90;;;;;;4992009;28;20026;-72
2022/09/10 03:27:09;;;;;;;3.38;1.30;;;14.40;99.90;;;;;;5003361;28;20041;-74
2022/09/10 03:29:35;;;;;;;2.30;1.30;;;14.40;99.90;;;;;;5004286;28;20084;-72
2022/09/10 03:32:01;;;;;;;3.75;1.20;;;14.30;99.90;;;;;;4997878;28;20041;-72
2022/09/10 03:34:27;;;;;;;2.88;1.20;;;14.30;99.90;;;;;;4992182;28;20181;-73
2022/09/10 03:36:53;;;;;;;1.80;1.20;;;14.30;99.90;;;;;;4995488;28;20523;-74
2022/09/10 03:39:18;;;;;;;3.13;1.30;;;14.20;99.90;;;;;;5012535;28;20378;-74
2022/09/10 03:41:45;;;;;;;4.72;1.50;;;14.10;99.90;;;;;;5001129;28;20023;-74
2022/09/10 03:44:10;;;;;;;3.90;1.60;;;14.10;99.90;;;;;;4992846;28;20579;-74
2022/09/10 03:46:37;;;;;;;2.58;1.17;;;14.20;99.90;;;;;;4985020;28;20034;-74
2022/09/10 03:49:06;;;;;;;3.45;1.50;;;14.10;99.90;;;;;;4992681;28;20053;-74
2022/09/10 03:51:32;;;;;;;2.17;1.50;;;14.10;99.90;;;;;;4991708;28;20034;-74
2022/09/10 03:53:58;;;;;;;3.70;1.40;;;14.30;99.90;;;;;;4984528;28;20022;-74
2022/09/10 03:56:24;;;;;;;1.67;1.30;;;14.10;99.90;;;;;;4986842;28;20077;-73
2022/09/10 03:58:51;;;;;;;3.40;1.38;;;14.00;99.90;;;;;;5011999;28;20053;-73
2022/09/10 04:01:17;;;;;;;3.10;1.55;;;13.90;99.90;;;;;;5011216;28;20098;-74
2022/09/10 04:03:43;;;;;;;2.85;1.52;;;13.90;99.90;;;;;;4994872;28;20113;-74
2022/09/10 04:06:13;;;;;;;5.20;1.55;;;13.90;99.90;;;;;;4992870;28;20538;-74
2022/09/10 04:08:39;;;;;;;3.90;1.40;;;13.80;99.90;;;;;;4992622;28;20030;-73
2022/09/10 04:11:05;;;;;;;4.95;1.70;;;13.80;99.90;;;;;;4992860;28;20514;-72
2022/09/10 04:13:31;;;;;;;2.40;1.30;;;13.90;99.90;;;;;;4995813;28;20037;-72
2022/09/10 04:15:59;;;;;;;3.38;1.13;;;13.80;99.90;;;;;;4991551;28;20068;-73
2022/09/10 04:18:26;;;;;;;2.08;1.17;;;13.80;99.90;;;;;;4991868;28;20408;-73
2022/09/10 04:20:52;;;;;;;4.88;1.50;;;13.70;99.90;;;;;;5000379;28;20053;-72
2022/09/10 04:23:17;;;;;;;3.13;1.20;;;13.80;99.90;;;;;;4992292;28;20026;-74
2022/09/10 04:25:43;;;;;;;2.13;1.20;;;13.80;99.90;;;;;;4984351;28;20018;-73
2022/09/10 04:28:10;;;;;;;2.75;1.33;;;13.90;99.90;;;;;;4988385;28;20030;-72
2022/09/10 04:30:36;;;;;;;3.60;1.10;;;14.00;99.90;;;;;;4988391;28;20018;-73
2022/09/10 04:33:01;;;;;;;3.67;1.42;;;14.00;99.90;;;;;;4990227;28;20028;-72
2022/09/10 04:35:27;;;;;;;2.90;1.20;;;13.90;99.90;;;;;;5010472;28;20026;-72
2022/09/10 04:37:52;;;;;;;2.42;1.25;;;13.90;99.90;;;;;;5005900;28;20026;-73
2022/09/10 04:40:18;;;;;;;2.63;1.30;;;13.90;99.90;;;;;;4995422;28;20026;-73
2022/09/10 04:42:43;;;;;;;4.43;1.30;;;13.90;99.90;;;;;;4998009;28;20480;-72
2022/09/10 04:45:09;;;;;;;3.67;1.20;;;14.00;99.90;;;;;;4992232;28;20034;-71
2022/09/10 04:47:35;;;;;;;3.65;1.50;;;13.90;99.90;;;;;;4991859;28;20099;-73
2022/09/10 04:50:02;;;;;;;4.00;1.30;;;13.90;99.90;;;;;;4992164;28;20041;-73
2022/09/10 04:52:28;;;;;;;3.78;1.25;;;14.00;99.90;;;;;;4992102;28;20114;-72
2022/09/10 04:54:53;;;;;;;2.40;1.20;;;14.10;99.90;;;;;;4992107;28;20105;-72
2022/09/10 04:57:19;;;;;;;2.47;1.45;;;14.10;99.90;;;;;;4990534;28;20027;-73
2022/09/10 04:59:45;;;;;;;2.65;1.30;;;14.00;99.90;;;;;;4990805;28;20084;-73
2022/09/10 05:02:11;;;;;;;2.53;1.38;;;14.10;99.90;;;;;;4995213;28;20022;-73
2022/09/10 05:04:38;;;;;;;2.60;1.10;;;14.10;99.90;;;;;;5011612;28;20033;-72
2022/09/10 05:07:03;;;;;;;1.60;1.10;;;14.30;99.90;;;;;;4990623;28;20520;-73
2022/09/10 05:09:30;;;;;;;3.03;1.40;;;14.10;99.90;;;;;;4982472;28;20043;-72
2022/09/10 05:11:56;;;;;;;3.15;1.35;;;14.10;99.90;;;;;;4990545;28;20117;-74
2022/09/10 05:14:22;;;;;;;3.58;1.13;;;14.10;99.90;;;;;;4991916;28;20123;-72
2022/09/10 05:16:47;;;;;;;2.63;1.20;;;14.20;99.90;;;;;;4991784;28;20543;-72
2022/09/10 05:19:16;;;;;;;1.77;1.15;;;14.20;99.90;;;;;;4991950;28;20037;-72
2022/09/10 05:21:43;;;;;;;4.20;1.55;;;14.20;99.90;;;;;;4990579;28;20033;-72
2022/09/10 05:24:09;;;;;;;1.52;1.20;;;14.20;99.90;;;;;;4991860;28;20026;-73
2022/09/10 05:26:34;;;;;;;2.72;1.25;;;14.30;99.90;;;;;;4991750;28;20027;-72
2022/09/10 05:29:00;;;;;;;2.53;1.20;;;14.40;99.90;;;;;;5003725;28;20514;-72
2022/09/10 05:31:26;;;;;;;3.42;1.70;;;14.50;99.90;;;;;;4997070;28;20538;-74
2022/09/10 05:33:54;;;;;;;4.18;3.78;;;14.60;99.90;;;;;;5009886;28;20064;-73
2022/09/10 05:36:19;;;;;;;4.88;3.78;;;14.60;99.90;;;;;;5005511;28;20365;-73
2022/09/10 05:38:45;;;;;;;2.75;2.05;;;14.60;99.90;;;;;;5003908;28;20114;-73
2022/09/10 05:41:11;;;;;;;5.05;1.77;;;14.60;99.90;;;;;;4998895;28;20041;-73
2022/09/10 05:43:37;;;;;;;20.13;11.18;;;14.60;99.90;;;;;;5014760;28;20105;-73
2022/09/10 05:46:03;;;;;;;228.98;108.18;;;14.60;99.90;;;;;;5012320;28;20105;-73
2022/09/10 05:48:29;;;;;;;48.03;21.92;;;14.60;99.90;;;;;;4993744;28;20022;-73
2022/09/10 05:50:55;;;;;;;219.02;116.43;;;14.60;99.90;;;;;;4995092;28;20054;-73
2022/09/10 05:53:21;;;;;;;94.35;51.53;;;14.60;99.90;;;;;;4997460;28;20026;-74
2022/09/10 05:55:46;;;;;;;342.90;197.65;;;14.60;99.90;;;;;;4992340;28;20034;-73
2022/09/10 05:58:12;;;;;;;119.22;66.22;;;14.60;99.90;;;;;;4990077;28;20086;-73
2022/09/10 06:00:38;;;;;;;77.93;42.40;;;14.70;99.90;;;;;;4984627;28;20029;-73
2022/09/10 06:03:04;;;;;;;102.07;52.78;;;14.80;99.90;;;;;;4991656;28;20089;-73
2022/09/10 06:05:30;;;;;;;128.30;65.13;;;14.80;99.90;;;;;;4986626;28;20077;-73
2022/09/10 06:07:56;;;;;;;51.17;27.67;;;14.70;99.90;;;;;;4994639;28;20027;-73
2022/09/10 06:10:21;;;;;;;9.43;5.03;;;14.70;99.90;;;;;;4994720;28;20037;-73
2022/09/10 06:12:51;;;;;;;6.03;3.88;;;14.60;99.90;;;;;;5006697;28;20065;-73
2022/09/10 06:15:17;;;;;;;3.60;1.88;;;14.70;99.90;;;;;;5012847;28;20030;-73
2022/09/10 06:17:43;;;;;;;2.97;1.55;;;14.60;99.90;;;;;;5014022;28;20105;-73
2022/09/10 06:20:11;;;;;;;4.22;1.80;;;14.60;99.90;;;;;;5004709;28;20164;-73
2022/09/10 06:22:37;;;;;;;4.18;1.50;;;14.60;99.90;;;;;;4990309;28;20026;-73
2022/09/10 06:25:04;;;;;;;4.47;1.75;;;14.50;99.90;;;;;;4994577;28;20118;-73
2022/09/10 06:27:30;;;;;;;2.22;1.50;;;14.50;99.90;;;;;;4994248;28;20026;-73
2022/09/10 06:29:55;;;;;;;3.13;1.50;;;14.50;99.90;;;;;;4993104;28;20137;-74
2022/09/10 06:32:21;;;;;;;2.55;1.48;;;14.50;99.90;;;;;;4993013;28;20062;-74
2022/09/10 06:34:46;;;;;;;4.30;1.38;;;14.60;99.90;;;;;;4992699;28;20030;-73
2022/09/10 06:37:13;;;;;;;1.40;0.98;;;14.50;99.90;;;;;;4990678;28;20024;-73
2022/09/10 06:39:38;;;;;;;2.50;1.20;;;14.60;99.90;;;;;;4988555;28;20017;-73
2022/09/10 06:42:04;;;;;;;2.83;1.30;;;14.50;99.90;;;;;;5016833;28;20025;-72
2022/09/10 06:44:29;;;;;;;3.05;1.27;;;14.50;99.90;;;;;;4987270;28;20045;-73
2022/09/10 06:46:55;;;;;;;6.63;3.70;;;14.50;99.90;;;;;;4989612;28;20022;-73
2022/09/10 06:49:20;;;;;;;10.93;7.07;;;14.60;99.90;;;;;;5003118;28;20018;-73
2022/09/10 06:51:48;;;;;;;4.18;2.80;;;14.50;99.90;;;;;;4992708;28;20100;-73
2022/09/10 06:54:14;;;;;;;5.28;4.35;;;14.60;99.90;;;;;;4993917;28;20029;-72
2022/09/10 06:56:41;;;;;;;4.38;2.30;;;14.70;99.90;;;;;;4993909;28;20022;-72
2022/09/10 06:59:08;;;;;;;4.38;2.97;;;14.70;99.90;;;;;;5000103;28;20022;-72
2022/09/10 07:01:34;;;;;;;4.15;1.50;;;14.80;99.90;;;;;;5013459;28;20034;-72
2022/09/10 07:04:00;;;;;;;3.22;2.10;;;14.70;99.90;;;;;;4987170;28;20450;-72
2022/09/10 07:06:33;;;;;;;3.30;1.35;;;14.70;99.90;;;;;;4990915;28;20098;-72
2022/09/10 07:08:59;;;;;;;2.25;1.58;;;14.80;99.90;;;;;;4993516;28;20522;-72
2022/09/10 07:11:27;;;;;;;1.83;1.40;;;14.70;99.90;;;;;;4993682;28;20061;-72
2022/09/10 07:13:53;;;;;;;2.63;1.30;;;14.70;99.90;;;;;;4993362;28;20575;-73
2022/09/10 07:16:20;;;;;;;2.38;1.30;;;14.80;99.90;;;;;;4993569;28;20037;-72
2022/09/10 07:18:54;;;;;;;3.22;1.60;;;14.90;99.90;;;;;;4993561;28;20050;-73
2022/09/10 07:21:21;;;;;;;4.28;1.42;;;15.10;99.90;;;;;;4993400;28;20026;-75
2022/09/10 07:23:47;;;;;;;2.28;1.40;;;14.90;99.90;;;;;;4993284;28;20026;-73
2022/09/10 07:26:18;;;;;;;2.92;1.50;;;15.00;99.90;;;;;;4993304;28;20030;-74
2022/09/10 07:28:44;;;;;;;5.85;1.52;;;15.00;99.90;;;;;;4993165;28;20033;-74
2022/09/10 07:31:28;;;;;;;3.45;1.75;;;15.00;99.90;;;;;;4992607;28;20133;-74
2022/09/10 07:33:56;;;;;;;1.67;1.40;;;15.10;99.90;;;;;;4988734;28;20544;-73
2022/09/10 07:36:22;;;;;;;3.05;1.10;;;15.30;99.90;;;;;;4986253;28;20110;-73
2022/09/10 07:38:50;;;;;;;3.40;1.45;;;15.40;99.90;;;;;;5006855;28;20018;-72
2022/09/10 07:41:16;;;;;;;4.18;1.40;;;15.40;99.90;;;;;;4995341;28;20031;-72
2022/09/10 07:43:43;;;;;;;2.67;1.40;;;15.30;99.90;;;;;;5012592;28;20029;-72
2022/09/10 07:46:19;;;;;;;2.35;1.20;;;15.20;99.90;;;;;;5009357;28;20026;-73
2022/09/10 07:48:52;;;;;;;2.28;1.38;;;15.20;99.90;;;;;;4984615;28;20022;-73
2022/09/10 07:51:18;;;;;;;1.85;1.25;;;15.20;99.90;;;;;;4987627;28;20173;-73
2022/09/10 07:53:44;;;;;;;3.75;1.63;;;15.20;99.90;;;;;;4992604;28;20101;-74
2022/09/10 07:56:11;;;;;;;2.20;1.33;;;15.30;99.90;;;;;;4992831;28;20549;-73
2022/09/10 07:58:37;;;;;;;1.58;1.10;;;15.30;99.90;;;;;;4992496;28;20511;-73
2022/09/10 08:01:08;;;;;;;2.88;1.40;;;15.20;99.90;;;;;;4992850;28;20019;-74
2022/09/10 08:03:33;;;;;;;1.67;1.40;;;15.20;99.90;;;;;;4993937;28;20033;-74
2022/09/10 08:06:00;;;;;;;2.80;1.30;;;15.50;99.90;;;;;;5012173;28;20018;-73
2022/09/10 08:08:30;;;;;;;5.07;1.38;;;15.60;99.90;;;;;;4995713;28;20026;-74
2022/09/10 08:11:15;;;;;;;3.42;1.30;;;15.60;99.90;;;;;;4992613;28;20030;-73
2022/09/10 08:13:43;;;;;;;3.33;1.40;;;15.70;99.90;;;;;;4991896;28;20725;-72
2022/09/10 08:16:12;;;;;;;2.75;1.35;;;15.70;99.90;;;;;;4991184;28;20548;-73
2022/09/10 08:18:38;;;;;;;2.03;1.10;;;15.50;99.90;;;;;;4990945;28;20033;-74
2022/09/10 08:21:06;;;;;;;2.50;1.10;;;15.50;99.90;;;;;;4991135;28;20031;-73
2022/09/10 08:23:32;;;;;;;2.92;1.30;;;15.60;99.90;;;;;;4992331;28;20026;-73
2022/09/10 08:25:58;;;;;;;1.58;1.27;;;15.60;99.90;;;;;;4992320;28;20033;-73
2022/09/10 08:28:26;;;;;;;3.03;1.27;;;15.60;99.90;;;;;;4994806;28;20027;-72
2022/09/10 08:31:06;;;;;;;2.03;1.42;;;15.60;99.90;;;;;;4991657;28;20445;-73
2022/09/10 08:33:34;;;;;;;2.15;1.13;;;15.80;99.90;;;;;;5009504;28;20503;-73
2022/09/10 08:35:59;;;;;;;3.00;1.50;;;15.80;99.90;;;;;;5011781;28;20033;-73
2022/09/10 08:38:29;;;;;;;4.53;1.20;;;16.00;99.90;;;;;;5011573;28;20022;-74
2022/09/10 08:40:56;;;;;;;3.60;1.50;;;16.30;99.90;;;;;;5008126;28;20032;-72
2022/09/10 08:43:50;;;;;;;1.83;1.08;;;16.30;99.90;;;;;;4990714;28;20073;-73
2022/09/10 08:46:22;;;;;;;3.00;1.38;;;16.40;99.90;;;;;;4992383;28;20100;-73
2022/09/10 08:48:59;;;;;;;2.38;1.10;;;16.40;99.90;;;;;;4991901;28;20022;-73
2022/09/10 08:51:29;;;;;;;1.80;1.27;;;16.40;99.90;;;;;;4990918;28;20476;-73
2022/09/10 08:54:03;;;;;;;3.33;1.40;;;16.40;99.90;;;;;;4996003;28;20498;-73
2022/09/10 08:56:30;;;;;;;2.10;1.27;;;16.40;99.90;;;;;;5010728;28;20033;-74
2022/09/10 08:59:10;;;;;;;2.28;1.20;;;16.30;99.90;;;;;;5010213;28;20022;-73
2022/09/10 09:01:53;;;;;;;2.42;1.25;;;16.20;99.90;;;;;;4997951;28;20019;-73
2022/09/10 09:04:39;;;;;;;3.33;1.70;;;16.20;99.90;;;;;;4992025;28;20030;-73
2022/09/10 09:07:13;;;;;;;1.75;1.33;;;16.20;99.90;;;;;;4990359;28;20027;-73
2022/09/10 09:09:39;;;;;;;2.33;1.10;;;16.30;99.90;;;;;;5005122;28;20030;-73
2022/09/10 09:12:26;;;;;;;2.72;1.52;;;16.30;99.90;;;;;;5011590;28;20032;-73
2022/09/10 09:14:58;;;;;;;4.03;1.65;;;16.20;99.90;;;;;;5011234;28;20361;-74
2022/09/10 09:17:47;;;;;;;2.47;1.50;;;16.40;99.90;;;;;;5014025;28;20029;-74
2022/09/10 09:20:57;;;;;;;4.88;1.38;;;16.60;99.90;;;;;;5015368;28;20068;-73
2022/09/10 09:23:35;;;;;;;2.65;1.35;;;16.40;99.90;;;;;;5012826;28;20030;-73
2022/09/10 09:26:12;;;;;;;2.67;1.00;;;16.20;99.90;;;;;;5015117;28;20467;-74
2022/09/10 09:28:53;;;;;;;3.03;1.10;;;16.20;99.90;;;;;;5013670;28;20025;-73
2022/09/10 09:31:26;;;;;;;2.83;1.20;;;16.10;99.90;;;;;;5014912;28;20046;-73
2022/09/10 09:33:58;;;;;;;2.75;1.05;;;16.10;99.90;;;;;;5015097;28;20368;-73
2022/09/10 09:36:36;;;;;;;2.80;1.20;;;15.90;99.90;;;;;;4995461;28;20018;-73
2022/09/10 09:39:09;;;;;;;1.10;1.10;;;16.10;99.90;;;;;;4996657;28;20022;-73
2022/09/10 09:41:54;;;;;;;2.70;1.48;;;16.40;99.90;;;;;;5006104;28;20218;-73
2022/09/10 09:44:25;;;;;;;2.63;1.00;;;16.80;99.90;;;;;;5000271;28;20036;-73
2022/09/10 09:46:50;;;;;;;2.13;1.10;;;17.10;99.90;;;;;;5005623;28;20026;-73
2022/09/10 09:49:16;;;;;;;2.97;1.20;;;16.90;99.90;;;;;;4995151;28;20038;-73
2022/09/10 09:51:47;;;;;;;1.75;1.20;;;16.80;99.90;;;;;;4994943;28;20026;-73
2022/09/10 09:54:27;;;;;;;2.78;1.55;;;16.70;99.90;;;;;;4995254;28;20022;-73
2022/09/10 09:56:57;;;;;;;2.33;1.27;;;17.00;99.90;;;;;;4993561;28;20085;-73
2022/09/10 09:59:33;;;;;;;1.65;1.25;;;17.40;99.90;;;;;;4995023;28;20101;-72
2022/09/10 10:02:11;;;;;;;1.27;1.10;;;17.20;99.90;;;;;;5011041;28;20018;-73
2022/09/10 10:04:40;;;;;;;3.15;1.20;;;17.30;99.90;;;;;;5014362;28;20038;-73
2022/09/10 10:07:06;;;;;;;2.92;1.10;;;16.90;99.90;;;;;;5014247;28;20034;-73
2022/09/10 10:09:37;;;;;;;1.25;1.15;;;16.80;99.90;;;;;;5014398;28;20028;-73
2022/09/10 10:12:05;;;;;;;1.40;1.15;;;16.70;99.90;;;;;;5014173;28;20026;-72
2022/09/10 10:14:30;;;;;;;1.08;0.90;;;16.60;99.90;;;;;;5014138;28;20036;-73
2022/09/10 10:16:57;;;;;;;1.73;1.35;;;16.50;99.90;;;;;;5013858;28;20025;-72
2022/09/10 10:19:39;;;;;;;2.47;1.48;;;16.20;99.90;;;;;;5014141;28;20014;-73
2022/09/10 10:22:13;;;;;;;3.72;1.40;;;16.40;99.90;;;;;;5014046;28;20025;-72
2022/09/10 10:24:44;;;;;;;3.15;1.15;;;16.20;99.90;;;;;;5029222;28;20057;-73
2022/09/10 10:27:17;;;;;;;1.02;0.93;;;16.20;99.90;;;;;;5012287;28;20407;-73
2022/09/10 10:30:20;;;;;;;1.17;0.90;;;16.00;99.90;;;;;;5012497;28;20097;-72
2022/09/10 10:32:57;;;;;;;0.88;0.70;;;16.10;99.90;;;;;;5000960;28;20385;-73
2022/09/10 10:35:49;;;;;;;1.00;0.90;;;16.00;99.90;;;;;;5013745;28;20030;-72
2022/09/10 10:38:28;;;;;;;3.88;1.65;;;16.00;99.90;;;;;;5013768;28;20088;-72
2022/09/10 10:41:35;;;;;;;3.13;1.15;;;15.80;99.90;;;;;;5010373;28;20053;-73
2022/09/10 10:44:26;;;;;;;2.20;1.40;;;15.70;99.90;;;;;;4980211;28;20046;-73
2022/09/10 10:47:34;;;;;;;2.33;1.38;;;15.60;99.90;;;;;;4993975;28;20476;-73
2022/09/10 10:50:07;;;;;;;;;;;15.70;99.90;;;;;;4988818;28;20046;-73
2022/09/10 10:52:54;;;;;;;3.35;1.40;;;15.90;99.90;;;;;;4993856;28;19912;-73
2022/09/10 10:55:33;;;;;;;2.58;1.40;;;15.90;99.90;;;;;;4993864;28;20471;-74
2022/09/10 10:58:11;;;;;;;3.67;1.40;;;15.70;99.90;;;;;;4993697;28;20520;-73
2022/09/10 11:00:45;;;;;;;1.80;1.63;;;15.40;99.90;;;;;;4993872;28;20042;-72
2022/09/10 11:03:17;;;;;;;2.13;1.40;;;16.00;99.90;;;;;;4993525;28;20124;-74
2022/09/10 11:05:51;;;;;;;2.40;1.27;;;16.00;99.90;;;;;;4993602;28;20113;-74
2022/09/10 11:08:41;;;;;;;4.70;1.80;;;16.10;99.90;;;;;;4993603;28;20030;-74
2022/09/10 11:11:22;;;;;;;3.85;1.90;;;16.10;99.90;;;;;;5005145;28;20028;-74
2022/09/10 11:13:59;;;;;;;4.97;2.35;;;16.10;99.90;;;;;;5028198;28;20030;-73
2022/09/10 11:16:35;;;;;;;4.60;2.00;;;16.10;99.90;;;;;;5011811;28;20026;-73
2022/09/10 11:19:11;;;;;;;6.78;2.13;;;16.20;99.90;;;;;;5012843;28;20042;-74
2022/09/10 11:21:42;;;;;;;7.47;2.20;;;16.40;99.90;;;;;;5011522;28;20025;-73
2022/09/10 11:24:25;;;;;;;5.00;2.42;;;16.40;99.90;;;;;;5013229;28;20267;-73
2022/09/10 11:27:04;;;;;;;5.18;1.98;;;16.50;99.90;;;;;;5012864;28;20057;-73
2022/09/10 11:29:48;;;;;;;2.83;1.90;;;17.00;99.90;;;;;;4988722;28;20030;-74
2022/09/10 11:32:37;;;;;;;4.50;2.30;;;17.20;99.90;;;;;;4994683;28;20030;-73
2022/09/10 11:35:30;;;;;;;4.38;2.17;;;17.20;99.90;;;;;;4985020;28;20029;-73
2022/09/10 11:38:06;;;;;;;3.42;1.95;;;17.20;99.90;;;;;;4987697;28;20018;-73
2022/09/10 11:40:45;;;;;;;4.55;1.88;;;17.30;99.90;;;;;;5000037;28;20018;-72
2022/09/10 11:43:26;;;;;;;3.90;1.85;;;17.50;99.90;;;;;;4986462;28;20034;-73
2022/09/10 11:45:56;;;;;;;5.15;1.98;;;17.30;99.90;;;;;;4986387;28;20033;-73
2022/09/10 11:48:58;;;;;;;6.13;2.30;;;17.00;99.90;;;;;;4992890;28;20026;-73
2022/09/10 11:51:38;;;;;;;4.13;2.15;;;17.00;99.90;;;;;;4951712;29;20023;-73
2022/09/10 11:54:19;;;;;;;4.38;1.77;;;17.10;99.90;;;;;;4988469;28;20065;-74
2022/09/10 11:57:08;;;;;;;6.85;2.55;;;17.40;99.90;;;;;;4992746;28;20041;-72
2022/09/10 12:00:08;;;;;;;2.70;1.80;;;17.20;99.90;;;;;;4983591;28;20076;-72
2022/09/10 12:03:12;;;;;;;5.30;2.00;;;17.20;99.90;;;;;;4994151;23;20042;-74
2022/09/10 12:06:05;;;;;;;4.80;2.08;;;17.10;99.90;;;;;;4990192;28;20026;-75
2022/09/10 12:08:55;;;;;;;4.90;1.90;;;17.00;99.90;;;;;;4986261;28;20019;-74
2022/09/10 12:11:39;;;;;;;4.28;2.17;;;17.20;99.90;;;;;;4986575;28;20039;-75
2022/09/10 12:14:14;;;;;;;5.20;1.85;;;17.40;99.90;;;;;;4973190;28;20057;-74
2022/09/10 12:17:02;;;;;;;4.03;1.73;;;17.30;99.90;;;;;;4970496;28;20074;-74
2022/09/10 12:19:45;;;;;;;6.40;2.30;;;17.10;99.90;;;;;;4986394;28;20134;-74
2022/09/10 12:22:20;;;;;;;6.93;1.90;;;17.20;99.90;;;;;;4981748;28;20023;-74
2022/09/10 12:25:04;;;;;;;4.32;1.90;;;17.10;99.90;;;;;;4979560;28;20022;-75
2022/09/10 12:27:47;;;;;;;5.60;1.70;;;16.90;99.90;;;;;;4979913;28;20098;-74
2022/09/10 12:30:28;;;;;;;6.22;2.33;;;16.70;99.90;;;;;;4969977;28;20025;-74
2022/09/10 12:33:26;;;;;;;4.28;2.20;;;16.60;99.90;;;;;;4979345;28;20061;-75
2022/09/10 12:35:52;;;;;;;3.22;2.10;;;16.20;99.90;;;;;;4977927;28;20492;-75
2022/09/10 12:38:47;;;;;;;4.22;2.33;;;16.20;99.90;;;;;;4984342;28;20118;-75
2022/09/10 12:41:22;;;;;;;6.30;2.55;;;16.30;99.90;;;;;;4978666;28;20033;-75
2022/09/10 12:43:47;;;;;;;5.10;2.17;;;16.40;99.90;;;;;;4978487;28;20035;-75
2022/09/10 12:46:13;;;;;;;5.55;2.40;;;16.10;99.90;;;;;;4978584;28;20022;-75
2022/09/10 12:48:47;;;;;;;5.68;2.45;;;16.40;99.90;;;;;;4979001;28;20045;-75
2022/09/10 12:51:16;;;;;;;3.03;2.45;;;16.40;99.90;;;;;;4986857;28;20149;-74
2022/09/10 12:54:08;;;;;;;4.68;2.40;;;16.50;99.90;;;;;;4989730;28;20034;-75
2022/09/10 12:56:34;;;;;;;5.50;2.22;;;18.70;99.90;;;;;;4988643;28;20416;-75
2022/09/10 12:59:11;;;;;;;5.45;2.03;;;20.60;99.90;;;;;;4977838;28;20019;-75
2022/09/10 13:01:46;;;;;;;5.00;2.42;;;21.30;99.90;;;;;;4989692;28;20027;-75
2022/09/10 13:04:46;;;;;;;4.30;2.15;;;21.20;99.90;;;;;;4984554;28;20039;-75
2022/09/10 13:07:25;;;;;;;7.40;1.90;;;21.00;99.90;;;;;;4962582;28;20031;-75